Time;durP1;ratioP1;P1;durP2;ratioP2;P2;SDS_P1;SDS_P2;PMS_P1;PMS_P2;Temp;Humidity;BMP_temperature;BMP_pressure;BME280_temperature;BME280_humidity;BME280_pressure;Samples;Min_cycle;Max_cycle;Signal;HPM_P1;HPM_P2
2022/08/12 00:44:39;;;;;;;;;;;;;;;;;;5074087;28;973;-74
2022/08/12 00:47:05;;;;;;;;;;;;;;;;;;5072775;28;1484;-73
2022/08/12 00:49:31;;;;;;;;;;;;;;;;;;5072968;28;1333;-72
2022/08/12 00:52:08;;;;;;;;;;;;;;;;;;5072096;28;1379;-73
2022/08/12 00:54:39;;;;;;;;;;;;;;;;;;5073854;28;1075;-72
2022/08/12 00:57:06;;;;;;;;;;;;;;;;;;5073748;28;1123;-73
2022/08/12 00:59:33;;;;;;;;;;;;;;;;;;5073846;28;1918;-72
2022/08/12 01:02:01;;;;;;;;;;;;;;;;;;5073373;28;1340;-73
2022/08/12 01:12:40;;;;;;;;;;;;;;;;;;5073492;28;985;-73
2022/08/12 01:15:06;;;;;;;;;;;;;;;;;;5073353;28;823;-72
2022/08/12 01:17:34;;;;;;;;;;;;;;;;;;5073608;28;1984;-72
2022/08/12 01:20:03;;;;;;;;;;;;;;;;;;5073251;28;1399;-72
2022/08/12 01:22:30;;;;;;;;;;;;;;;;;;5072746;28;1055;-72
2022/08/12 01:25:00;;;;;;;;;;;;;;;;;;5073226;28;960;-73
2022/08/12 01:27:27;;;;;;;;;;;;;;;;;;5073296;28;846;-72
2022/08/12 01:29:54;;;;;;;;;;;;;;;;;;5073176;28;1321;-72
2022/08/12 01:32:22;;;;;;;;;;;;;;;;;;5072961;28;1102;-73
2022/08/12 01:34:50;;;;;;;;;;;;;;;;;;5073040;28;1071;-72
2022/08/12 01:37:17;;;;;;;;;;;;;;;;;;5072951;28;1126;-72
2022/08/12 01:39:44;;;;;;;;;;;;;;;;;;5073195;28;1918;-72
2022/08/12 01:42:12;;;;;;;;;;;;;;;;;;5072692;28;1091;-70
2022/08/12 01:44:38;;;;;;;;;;;;;;;;;;5071866;28;795;-71
2022/08/12 01:47:05;;;;;;;;;;;;;;;;;;5072742;28;1134;-72
2022/08/12 01:49:38;;;;;;;;;;;;;;;;;;5073013;28;876;-72
2022/08/12 01:52:05;;;;;;;;;;;;;;;;;;5072515;28;1432;-72
2022/08/12 01:54:35;;;;;;;;;;;;;;;;;;5072670;28;837;-71
2022/08/12 01:57:03;;;;;;;;;;;;;;;;;;5072828;28;1123;-72
2022/08/12 01:59:49;;;;;;;;;;;;;;;;;;5072506;28;1979;-72
2022/08/12 02:02:17;;;;;;;;;;;;;;;;;;5072151;28;920;-72
2022/08/12 02:13:08;;;;;;;;;;;;;;;;;;5072179;28;830;-72
2022/08/12 02:15:39;;;;;;;;;;;;;;;;;;5072196;28;1154;-72
2022/08/12 02:18:08;;;;;;;;;;;;;;;;;;5072130;28;1918;-72
2022/08/12 02:20:37;;;;;;;;;;;;;;;;;;5072032;28;1322;-72
2022/08/12 02:23:03;;;;;;;;;;;;;;;;;;5071231;28;1418;-71
2022/08/12 02:25:32;;;;;;;;;;;;;;;;;;5071006;28;1119;-72
2022/08/12 02:27:59;;;;;;;;;;;;;;;;;;5068746;28;1467;-72
2022/08/12 02:30:28;;;;;;;;;;;;;;;;;;5070535;28;1335;-72
2022/08/12 02:32:56;;;;;;;;;;;;;;;;;;5071784;28;1045;-72
2022/08/12 02:35:23;;;;;;;;;;;;;;;;;;5071990;28;1043;-72
2022/08/12 02:37:50;;;;;;;;;;;;;;;;;;5071714;28;1918;-73
2022/08/12 02:40:17;;;;;;;;;;;;;;;;;;5071965;28;1301;-72
2022/08/12 02:42:44;;;;;;;;;;;;;;;;;;5071324;28;1063;-71
2022/08/12 02:45:10;;;;;;;;;;;;;;;;;;5071698;28;842;-72
2022/08/12 02:47:38;;;;;;;;;;;;;;;;;;5063566;28;1990;-72
2022/08/12 02:50:07;;;;;;;;;;;;;;;;;;5050163;28;1479;-72
2022/08/12 02:52:34;;;;;;;;;;;;;;;;;;5051383;28;1216;-72
2022/08/12 02:55:04;;;;;;;;;;;;;;;;;;5051060;28;1059;-72
2022/08/12 02:57:31;;;;;;;;;;;;;;;;;;5051712;28;782;-72
2022/08/12 02:59:57;;;;;;;;;;;;;;;;;;5051134;28;1985;-71
2022/08/12 03:02:23;;;;;;;;;;;;;;;;;;5051413;28;1067;-72
2022/08/12 03:04:51;;;;;;;;;;;;;;;;;;5082985;22;3533;-74
2022/08/12 03:07:20;;;;;;;;;;;;;;;;;;5091590;28;1191;-74
2022/08/12 03:09:49;;;;;;;;;;;;;;;;;;5091692;28;941;-74
2022/08/12 03:12:16;;;;;;;;;;;;;;;;;;5091485;28;1083;-74
2022/08/12 03:14:42;;;;;;;;;;;;;;;;;;5091403;28;1309;-74
2022/08/12 03:17:10;;;;;;;;;;;;;;;;;;5091653;28;818;-74
2022/08/12 03:19:37;;;;;;;;;;;;;;;;;;5091551;28;1914;-74
2022/08/12 03:22:11;;;;;;;;;;;;;;;;;;5091075;28;944;-74
2022/08/12 03:24:43;;;;;;;;;;;;;;;;;;5091409;28;1386;-74
2022/08/12 03:27:10;;;;;;;;;;;;;;;;;;5091430;28;846;-74
2022/08/12 03:29:36;;;;;;;;;;;;;;;;;;5091142;28;724;-74
2022/08/12 03:32:04;;;;;;;;;;;;;;;;;;5091103;28;1118;-73
2022/08/12 03:34:32;;;;;;;;;;;;;;;;;;5091404;28;1426;-74
2022/08/12 03:36:58;;;;;;;;;;;;;;;;;;5091388;28;992;-74
2022/08/12 03:39:33;;;;;;;;;;;;;;;;;;5091029;28;1925;-73
2022/08/12 03:42:00;;;;;;;;;;;;;;;;;;5065294;28;1476;-73
2022/08/12 04:00:53;;;;;;;;;;;;;;;;;;5074472;28;1439;-75
2022/08/12 04:06:04;;;;;;;;;;;;;;;;;;5090967;28;909;-74
2022/08/12 04:08:30;;;;;;;;;;;;;;;;;;5090610;28;1451;-75
2022/08/12 04:13:41;;;;;;;;;;;;;;;;;;5076644;28;1347;-75
2022/08/12 04:16:09;;;;;;;;;;;;;;;;;;5095095;28;1068;-75
2022/08/12 04:18:37;;;;;;;;;;;;;;;;;;5077668;28;1976;-75
2022/08/12 04:21:03;;;;;;;;;;;;;;;;;;5080091;28;1470;-76
2022/08/12 04:23:30;;;;;;;;;;;;;;;;;;5087224;28;1336;-75
2022/08/12 04:25:56;;;;;;;;;;;;;;;;;;5094709;28;1087;-75
2022/08/12 04:28:24;;;;;;;;;;;;;;;;;;5083683;28;1408;-76
2022/08/12 04:30:52;;;;;;;;;;;;;;;;;;5072969;28;1545;-76
2022/08/12 04:33:18;;;;;;;;;;;;;;;;;;5072129;28;1459;-75
2022/08/12 04:35:45;;;;;;;;;;;;;;;;;;5080906;28;1495;-76
2022/08/12 04:38:11;;;;;;;;;;;;;;;;;;5089218;28;1424;-76
2022/08/12 04:40:38;;;;;;;;;;;;;;;;;;5088445;28;1918;-76
2022/08/12 04:43:05;;;;;;;;;;;;;;;;;;5094035;28;790;-77
2022/08/12 04:45:31;;;;;;;;;;;;;;;;;;5088948;28;1439;-76
2022/08/12 04:48:00;;;;;;;;;;;;;;;;;;5087393;28;1384;-76
2022/08/12 04:50:26;;;;;;;;;;;;;;;;;;5087477;28;1133;-76
2022/08/12 04:52:57;;;;;;;;;;;;;;;;;;5094145;28;854;-77
2022/08/12 04:55:23;;;;;;;;;;;;;;;;;;5082271;28;1399;-77
2022/08/12 04:57:49;;;;;;;;;;;;;;;;;;5062004;28;1392;-77
2022/08/12 05:00:16;;;;;;;;;;;;;;;;;;5063575;28;1910;-77
2022/08/12 05:02:42;;;;;;;;;;;;;;;;;;5062841;28;1418;-77
2022/08/12 05:05:10;;;;;;;;;;;;;;;;;;5062397;28;1462;-77
2022/08/12 05:07:36;;;;;;;;;;;;;;;;;;5064249;28;1344;-77
2022/08/12 05:10:03;;;;;;;;;;;;;;;;;;5054705;28;1311;-77
2022/08/12 05:12:35;;;;;;;;;;;;;;;;;;5052570;28;1166;-76
2022/08/12 05:15:01;;;;;;;;;;;;;;;;;;5051740;28;1314;-77
2022/08/12 05:17:27;;;;;;;;;;;;;;;;;;5033705;28;1466;-77
2022/08/12 05:19:53;;;;;;;;;;;;;;;;;;5051699;28;1969;-77
2022/08/12 05:22:21;;;;;;;;;;;;;;;;;;5051462;28;1209;-77
2022/08/12 05:24:47;;;;;;;;;;;;;;;;;;5052027;28;1401;-77
2022/08/12 05:27:13;;;;;;;;;;;;;;;;;;5053400;28;1107;-77
2022/08/12 05:29:41;;;;;;;;;;;;;;;;;;5053294;28;1052;-77
2022/08/12 05:32:07;;;;;;;;;;;;;;;;;;5052934;28;980;-77
2022/08/12 05:34:33;;;;;;;;;;;;;;;;;;5052834;28;1429;-77
2022/08/12 05:37:01;;;;;;;;;;;;;;;;;;5056192;28;1586;-77
2022/08/12 05:39:28;;;;;;;;;;;;;;;;;;5069506;28;1972;-75
2022/08/12 05:41:54;;;;;;;;;;;;;;;;;;5066375;28;1318;-76
2022/08/12 05:44:21;;;;;;;;;;;;;;;;;;5057806;28;1778;-76
2022/08/12 05:46:47;;;;;;;;;;;;;;;;;;5088378;28;1184;-76
2022/08/12 05:49:13;;;;;;;;;;;;;;;;;;5093028;28;1137;-76
2022/08/12 05:51:39;;;;;;;;;;;;;;;;;;5091999;28;1067;-76
2022/08/12 05:54:05;;;;;;;;;;;;;;;;;;5081023;28;1455;-74
2022/08/12 05:56:33;;;;;;;;;;;;;;;;;;5079433;28;1137;-74
2022/08/12 05:59:00;;;;;;;;;;;;;;;;;;5069081;28;1919;-75
2022/08/12 06:01:27;;;;;;;;;;;;;;;;;;5075765;28;1420;-74
2022/08/12 06:03:53;;;;;;;;;;;;;;;;;;5083914;28;1476;-74
2022/08/12 06:06:19;;;;;;;;;;;;;;;;;;5080048;28;1412;-76
2022/08/12 06:08:47;;;;;;;;;;;;;;;;;;5080152;28;1439;-75
2022/08/12 06:11:14;;;;;;;;;;;;;;;;;;5070828;28;1223;-75
2022/08/12 06:13:42;;;;;;;;;;;;;;;;;;5062797;28;1353;-76
2022/08/12 06:16:08;;;;;;;;;;;;;;;;;;5056971;28;1612;-76
2022/08/12 06:18:38;;;;;;;;;;;;;;;;;;5071646;28;1051;-75
2022/08/12 06:21:06;;;;;;;;;;;;;;;;;;5076792;28;1914;-75
2022/08/12 06:23:32;;;;;;;;;;;;;;;;;;5068485;28;1422;-75
2022/08/12 06:25:59;;;;;;;;;;;;;;;;;;5065639;28;1471;-76
2022/08/12 06:28:25;;;;;;;;;;;;;;;;;;5064752;28;1436;-76
2022/08/12 06:30:52;;;;;;;;;;;;;;;;;;5085272;28;1446;-76
2022/08/12 06:33:19;;;;;;;;;;;;;;;;;;5064361;28;1272;-76
2022/08/12 06:35:45;;;;;;;;;;;;;;;;;;5054167;28;1476;-77
2022/08/12 06:38:15;;;;;;;;;;;;;;;;;;5073776;28;1403;-75
2022/08/12 06:43:26;;;;;;;;;;;;;;;;;;5067722;28;1415;-74
2022/08/12 06:45:56;;;;;;;;;;;;;;;;;;5083160;28;1329;-74
2022/08/12 06:48:23;;;;;;;;;;;;;;;;;;5078001;28;1462;-75
2022/08/12 06:50:50;;;;;;;;;;;;;;;;;;5075437;28;1639;-76
2022/08/12 06:53:16;;;;;;;;;;;;;;;;;;5071226;28;854;-74
2022/08/12 06:55:42;;;;;;;;;;;;;;;;;;5070949;28;1478;-76
2022/08/12 06:58:10;;;;;;;;;;;;;;;;;;5079990;28;1454;-76
2022/08/12 07:00:36;;;;;;;;;;;;;;;;;;5069501;28;1975;-76
2022/08/12 07:03:05;;;;;;;;;;;;;;;;;;5070704;28;1100;-74
2022/08/12 07:05:31;;;;;;;;;;;;;;;;;;5072215;28;1452;-74
2022/08/12 07:08:07;;;;;;;;;;;;;;;;;;5059791;28;1415;-76
2022/08/12 07:10:33;;;;;;;;;;;;;;;;;;5068808;28;1444;-76
2022/08/12 07:13:01;;;;;;;;;;;;;;;;;;5075838;28;1329;-76
2022/08/12 07:15:28;;;;;;;;;;;;;;;;;;5091499;28;1367;-77
2022/08/12 07:17:59;;;;;;;;;;;;;;;;;;5060610;28;1667;-77
2022/08/12 07:20:28;;;;;;;;;;;;;;;;;;5076209;28;1918;-76
2022/08/12 07:22:54;;;;;;;;;;;;;;;;;;5090656;28;956;-75
2022/08/12 07:25:33;;;;;;;;;;;;;;;;;;5085668;28;1483;-75
2022/08/12 07:28:01;;;;;;;;;;;;;;;;;;5061831;28;1272;-77
2022/08/12 07:30:29;;;;;;;;;;;;;;;;;;5091391;28;1134;-76
2022/08/12 07:32:55;;;;;;;;;;;;;;;;;;5087543;28;1451;-77
2022/08/12 07:35:22;;;;;;;;;;;;;;;;;;5076132;28;1485;-77
2022/08/12 07:37:51;;;;;;;;;;;;;;;;;;5044790;28;1801;-76
2022/08/12 07:40:18;;;;;;;;;;;;;;;;;;5062957;28;1986;-77
2022/08/12 07:42:44;;;;;;;;;;;;;;;;;;5074749;28;1482;-77
2022/08/12 07:45:11;;;;;;;;;;;;;;;;;;5064011;28;1617;-77
2022/08/12 07:47:40;;;;;;;;;;;;;;;;;;5080962;28;1408;-77
2022/08/12 07:50:08;;;;;;;;;;;;;;;;;;5084738;28;1397;-77
2022/08/12 07:52:34;;;;;;;;;;;;;;;;;;5094700;28;1130;-77
2022/08/12 07:55:02;;;;;;;;;;;;;;;;;;5083721;28;1490;-77
2022/08/12 07:57:28;;;;;;;;;;;;;;;;;;5058314;28;1439;-77
2022/08/12 07:59:54;;;;;;;;;;;;;;;;;;5080159;28;1906;-76
2022/08/12 08:02:20;;;;;;;;;;;;;;;;;;5074083;28;1146;-77
2022/08/12 08:04:56;;;;;;;;;;;;;;;;;;5074075;28;1313;-76
2022/08/12 08:07:22;;;;;;;;;;;;;;;;;;5074291;28;1084;-76
2022/08/12 08:09:48;;;;;;;;;;;;;;;;;;5074011;28;1083;-76
2022/08/12 08:14:59;;;;;;;;;;;;;;;;;;5076737;28;1560;-76
2022/08/12 08:17:26;;;;;;;;;;;;;;;;;;5078859;28;1121;-76
2022/08/12 08:19:54;;;;;;;;;;;;;;;;;;5080279;28;1941;-75
2022/08/12 08:22:20;;;;;;;;;;;;;;;;;;5066916;28;1180;-76
2022/08/12 08:24:50;;;;;;;;;;;;;;;;;;5058138;28;1424;-76
2022/08/12 08:27:17;;;;;;;;;;;;;;;;;;5064462;28;1566;-76
2022/08/12 08:29:44;;;;;;;;;;;;;;;;;;5073851;28;805;-76
2022/08/12 08:32:11;;;;;;;;;;;;;;;;;;5068284;28;1201;-76
2022/08/12 08:34:38;;;;;;;;;;;;;;;;;;5053788;28;1326;-76
2022/08/12 08:37:05;;;;;;;;;;;;;;;;;;5058339;28;1274;-76
2022/08/12 08:39:31;;;;;;;;;;;;;;;;;;5063471;28;1934;-77
2022/08/12 08:44:43;;;;;;;;;;;;;;;;;;5055481;28;1316;-77
2022/08/12 08:47:09;;;;;;;;;;;;;;;;;;5073402;28;1063;-77
2022/08/12 08:49:36;;;;;;;;;;;;;;;;;;5075882;28;2150;-76
2022/08/12 08:52:02;;;;;;;;;;;;;;;;;;5079604;28;1170;-77
2022/08/12 08:54:32;;;;;;;;;;;;;;;;;;5093483;28;1336;-77
2022/08/12 08:57:00;;;;;;;;;;;;;;;;;;5093684;28;1071;-77
2022/08/12 08:59:26;;;;;;;;;;;;;;;;;;5093556;28;806;-77
2022/08/12 09:01:54;;;;;;;;;;;;;;;;;;5092839;28;1917;-76
2022/08/12 09:04:22;;;;;;;;;;;;;;;;;;5092170;28;1345;-77
2022/08/12 09:06:49;;;;;;;;;;;;;;;;;;5086138;22;1980;-73
2022/08/12 09:09:16;;;;;;;;;;;;;;;;;;5052868;28;1118;-74
2022/08/12 09:14:42;;;;;;;;;;;;;;;;;;5010367;28;1071;-74
2022/08/12 09:17:12;;;;;;;;;;;;;;;;;;5010739;28;1402;-75
2022/08/12 09:19:38;;;;;;;;;;;;;;;;;;5029654;28;1040;-73
2022/08/12 09:22:07;;;;;;;;;;;;;;;;;;5052339;28;1914;-74
2022/08/12 09:24:34;;;;;;;;;;;;;;;;;;5052440;28;1079;-73
2022/08/12 09:27:01;;;;;;;;;;;;;;;;;;5032746;28;1667;-73
2022/08/12 09:29:28;;;;;;;;;;;;;;;;;;5020209;28;1147;-75
2022/08/12 09:31:55;;;;;;;;;;;;;;;;;;5031691;28;1198;-72
2022/08/12 09:34:28;;;;;;;;;;;;;;;;;;5032637;28;846;-73
2022/08/12 09:36:54;;;;;;;;;;;;;;;;;;5026703;28;1439;-72
2022/08/12 09:39:21;;;;;;;;;;;;;;;;;;5031890;28;1268;-73
2022/08/12 09:45:19;;;;;;;;;;;;;;;;;;5031506;28;1910;-73
2022/08/12 09:47:19;;;;;;;;;;;;;;;;;;5014240;28;1342;-73
2022/08/12 09:49:47;;;;;;;;;;;;;;;;;;5031631;28;953;-73
2022/08/12 09:52:14;;;;;;;;;;;;;;;;;;5032170;28;977;-73
2022/08/12 09:54:40;;;;;;;;;;;;;;;;;;5032092;28;1052;-73
2022/08/12 09:57:07;;;;;;;;;;;;;;;;;;5020037;28;1349;-73
2022/08/12 09:59:34;;;;;;;;;;;;;;;;;;5012274;28;886;-75
2022/08/12 10:02:00;;;;;;;;;;;;;;;;;;4997191;28;1914;-74
2022/08/12 10:04:26;;;;;;;;;;;;;;;;;;5009718;28;1274;-73
2022/08/12 10:06:54;;;;;;;;;;;;;;;;;;5031113;28;1433;-74
2022/08/12 10:09:20;;;;;;;;;;;;;;;;;;5031814;28;755;-74
2022/08/12 10:14:30;;;;;;;;;;;;;;;;;;5032042;28;986;-75
2022/08/12 10:16:56;;;;;;;;;;;;;;;;;;5031836;28;1291;-73
2022/08/12 10:19:23;;;;;;;;;;;;;;;;;;5031893;28;906;-75
2022/08/12 10:21:50;;;;;;;;;;;;;;;;;;5031346;28;1977;-74
2022/08/12 10:24:18;;;;;;;;;;;;;;;;;;5031652;28;1417;-73
2022/08/12 10:29:39;;;;;;;;;;;;;;;;;;5030509;28;929;-74
2022/08/12 10:32:06;;;;;;;;;;;;;;;;;;5017709;28;1186;-74
2022/08/12 10:34:32;;;;;;;;;;;;;;;;;;5051918;28;1020;-75
2022/08/12 10:36:59;;;;;;;;;;;;;;;;;;5048850;28;1542;-75
2022/08/12 10:39:32;;;;;;;;;;;;;;;;;;5034763;28;1591;-75
2022/08/12 10:44:42;;;;;;;;;;;;;;;;;;5051187;28;695;-74
2022/08/12 10:47:08;;;;;;;;;;;;;;;;;;5051374;28;1386;-75
2022/08/12 10:49:35;;;;;;;;;;;;;;;;;;5051116;28;938;-74
2022/08/12 10:52:03;;;;;;;;;;;;;;;;;;5050872;28;1314;-75
2022/08/12 10:54:31;;;;;;;;;;;;;;;;;;5033391;28;993;-75
2022/08/12 10:56:59;;;;;;;;;;;;;;;;;;5047295;28;1317;-75
2022/08/12 10:59:25;;;;;;;;;;;;;;;;;;5050638;28;1076;-74
2022/08/12 11:01:52;;;;;;;;;;;;;;;;;;5050277;28;1981;-73
2022/08/12 11:04:19;;;;;;;;;;;;;;;;;;5039292;28;1412;-74
2022/08/12 11:06:47;;;;;;;;;;;;;;;;;;5026621;28;1424;-74
2022/08/12 11:09:16;;;;;;;;;;;;;;;;;;5012775;28;1130;-74
2022/08/12 11:11:43;;;;;;;;;;;;;;;;;;5012969;28;1460;-75
2022/08/12 11:14:10;;;;;;;;;;;;;;;;;;5035420;28;1415;-74
2022/08/12 11:16:37;;;;;;;;;;;;;;;;;;5034002;28;1795;-75
2022/08/12 11:19:03;;;;;;;;;;;;;;;;;;5033873;28;1708;-75
2022/08/12 11:21:30;;;;;;;;;;;;;;;;;;5049206;28;1918;-74
2022/08/12 11:23:56;;;;;;;;;;;;;;;;;;5049687;28;1581;-76
2022/08/12 11:26:22;;;;;;;;;;;;;;;;;;5030852;28;1420;-76
2022/08/12 11:28:50;;;;;;;;;;;;;;;;;;5033513;28;1657;-75
2022/08/12 11:31:16;;;;;;;;;;;;;;;;;;5034110;28;1273;-75
2022/08/12 11:33:42;;;;;;;;;;;;;;;;;;5035241;28;1162;-75
2022/08/12 11:36:09;;;;;;;;;;;;;;;;;;5037560;28;1777;-74
2022/08/12 11:38:35;;;;;;;;;;;;;;;;;;5044132;28;1186;-74
2022/08/12 11:41:02;;;;;;;;;;;;;;;;;;5038379;28;1980;-74
2022/08/12 11:43:29;;;;;;;;;;;;;;;;;;5050299;28;1088;-74
2022/08/12 11:45:56;;;;;;;;;;;;;;;;;;5044444;28;1772;-76
2022/08/12 11:48:22;;;;;;;;;;;;;;;;;;5042241;28;1104;-73
2022/08/12 11:50:49;;;;;;;;;;;;;;;;;;5049860;28;1134;-75
2022/08/12 11:53:15;;;;;;;;;;;;;;;;;;5050300;28;882;-74
2022/08/12 11:55:42;;;;;;;;;;;;;;;;;;5044856;28;1776;-75
2022/08/12 11:58:08;;;;;;;;;;;;;;;;;;5034724;28;1495;-74
2022/08/12 12:00:34;;;;;;;;;;;;;;;;;;5041338;28;1977;-74
2022/08/12 12:03:02;;;;;;;;;;;;;;;;;;5035105;28;1144;-72
2022/08/12 12:05:28;;;;;;;;;;;;;;;;;;5031251;28;1597;-74
2022/08/12 12:07:54;;;;;;;;;;;;;;;;;;5032449;28;1676;-73
2022/08/12 12:10:20;;;;;;;;;;;;;;;;;;5011624;28;1639;-73
2022/08/12 12:12:47;;;;;;;;;;;;;;;;;;5036591;28;1397;-73
2022/08/12 12:15:13;;;;;;;;;;;;;;;;;;5049191;28;1170;-73
2022/08/12 12:17:40;;;;;;;;;;;;;;;;;;5032011;28;1432;-72
2022/08/12 12:20:08;;;;;;;;;;;;;;;;;;5035700;28;1784;-73
2022/08/12 12:22:35;;;;;;;;;;;;;;;;;;5030794;28;1916;-73
2022/08/12 12:25:01;;;;;;;;;;;;;;;;;;5036911;28;1064;-74
2022/08/12 12:27:27;;;;;;;;;;;;;;;;;;5028018;28;1495;-74
2022/08/12 12:29:55;;;;;;;;;;;;;;;;;;5034261;28;958;-73
2022/08/12 12:32:21;;;;;;;;;;;;;;;;;;5038559;28;1804;-75
2022/08/12 12:34:47;;;;;;;;;;;;;;;;;;5039404;28;1542;-74
2022/08/12 12:37:15;;;;;;;;;;;;;;;;;;5044750;28;1416;-74
2022/08/12 12:39:42;;;;;;;;;;;;;;;;;;5054136;28;1088;-74
2022/08/12 12:42:08;;;;;;;;;;;;;;;;;;5044097;28;2001;-74
2022/08/12 12:44:34;;;;;;;;;;;;;;;;;;5045226;28;1535;-74
2022/08/12 12:47:00;;;;;;;;;;;;;;;;;;5037321;28;1523;-73
2022/08/12 12:49:27;;;;;;;;;;;;;;;;;;5027709;28;1633;-76
2022/08/12 12:51:53;;;;;;;;;;;;;;;;;;5023507;28;1260;-75
2022/08/12 12:54:22;;;;;;;;;;;;;;;;;;5024968;28;1398;-76
2022/08/12 12:56:51;;;;;;;;;;;;;;;;;;5032726;28;1867;-74
2022/08/12 12:59:17;;;;;;;;;;;;;;;;;;5041495;28;1324;-74
2022/08/12 13:01:43;;;;;;;;;;;;;;;;;;5032463;28;1910;-76
2022/08/12 13:04:10;;;;;;;;;;;;;;;;;;5042313;28;1793;-73
2022/08/12 13:06:40;;;;;;;;;;;;;;;;;;5048475;28;1389;-74
2022/08/12 13:09:08;;;;;;;;;;;;;;;;;;5031371;28;1760;-75
2022/08/12 13:11:36;;;;;;;;;;;;;;;;;;5026884;28;1267;-77
2022/08/12 13:14:04;;;;;;;;;;;;;;;;;;5032335;28;1559;-75
2022/08/12 13:16:30;;;;;;;;;;;;;;;;;;5040651;28;1596;-76
2022/08/12 13:18:56;;;;;;;;;;;;;;;;;;5031776;28;1130;-75
2022/08/12 13:21:23;;;;;;;;;;;;;;;;;;5052389;28;1908;-74
2022/08/12 13:23:49;;;;;;;;;;;;;;;;;;5043360;28;1909;-74
2022/08/12 13:26:17;;;;;;;;;;;;;;;;;;5040118;28;1526;-74
2022/08/12 13:28:45;;;;;;;;;;;;;;;;;;5032705;28;1052;-73
2022/08/12 13:31:11;;;;;;;;;;;;;;;;;;5030656;28;1117;-74
2022/08/12 13:33:38;;;;;;;;;;;;;;;;;;5028587;28;1480;-73
2022/08/12 13:36:04;;;;;;;;;;;;;;;;;;5041259;28;1479;-73
2022/08/12 13:38:34;;;;;;;;;;;;;;;;;;5035087;28;1645;-74
2022/08/12 13:41:01;;;;;;;;;;;;;;;;;;5032811;28;1210;-73
2022/08/12 13:43:27;;;;;;;;;;;;;;;;;;5032368;28;1985;-72
2022/08/12 13:45:54;;;;;;;;;;;;;;;;;;5050271;28;1474;-74
2022/08/12 13:48:22;;;;;;;;;;;;;;;;;;5032792;28;1726;-73
2022/08/12 13:50:48;;;;;;;;;;;;;;;;;;5039608;28;1385;-73
2022/08/12 13:53:15;;;;;;;;;;;;;;;;;;5050308;28;1167;-73
2022/08/12 13:55:44;;;;;;;;;;;;;;;;;;5034058;28;1332;-73
2022/08/12 13:58:12;;;;;;;;;;;;;;;;;;5052307;28;1072;-73
2022/08/12 14:00:38;;;;;;;;;;;;;;;;;;5040897;28;1808;-73
2022/08/12 14:03:07;;;;;;;;;;;;;;;;;;5047848;28;1977;-73
2022/08/12 14:05:33;;;;;;;;;;;;;;;;;;5051927;28;1407;-74
2022/08/12 14:08:00;;;;;;;;;;;;;;;;;;5046958;28;1827;-73
2022/08/12 14:10:36;;;;;;;;;;;;;;;;;;5041735;28;1586;-73
2022/08/12 14:13:03;;;;;;;;;;;;;;;;;;5039198;28;1770;-74
2022/08/12 14:15:30;;;;;;;;;;;;;;;;;;5037056;28;1419;-74
2022/08/12 14:18:00;;;;;;;;;;;;;;;;;;5040868;28;1761;-74
2022/08/12 14:20:27;;;;;;;;;;;;;;;;;;5034285;28;1495;-74
2022/08/12 14:22:58;;;;;;;;;;;;;;;;;;5025192;28;1918;-74
2022/08/12 14:25:25;;;;;;;;;;;;;;;;;;5030922;28;1823;-74
2022/08/12 14:27:54;;;;;;;;;;;;;;;;;;5034716;28;1579;-74
2022/08/12 14:30:20;;;;;;;;;;;;;;;;;;5011890;28;1406;-73
2022/08/12 14:32:46;;;;;;;;;;;;;;;;;;5030089;28;1551;-73
2022/08/12 14:35:13;;;;;;;;;;;;;;;;;;5038266;28;1245;-73
2022/08/12 14:37:42;;;;;;;;;;;;;;;;;;5033255;28;1441;-74
2022/08/12 14:40:10;;;;;;;;;;;;;;;;;;5033413;28;1444;-73
2022/08/12 14:42:37;;;;;;;;;;;;;;;;;;5027991;28;1969;-73
2022/08/12 14:45:05;;;;;;;;;;;;;;;;;;5034391;28;1512;-73
2022/08/12 14:47:31;;;;;;;;;;;;;;;;;;5039320;28;1591;-73
2022/08/12 14:49:58;;;;;;;;;;;;;;;;;;5025657;28;2092;-73
2022/08/12 14:52:24;;;;;;;;;;;;;;;;;;5033945;28;1136;-74
2022/08/12 14:54:51;;;;;;;;;;;;;;;;;;5035039;28;1360;-73
2022/08/12 14:57:18;;;;;;;;;;;;;;;;;;5042049;28;1243;-73
2022/08/12 15:02:28;;;;;;;;;;;;;;;;;;5045062;28;1913;-72
2022/08/12 15:04:57;;;;;;;;;;;;;;;;;;5036840;28;1309;-72
2022/08/12 15:09:59;;;;;;;;;;;;;;;;;;5026644;28;1592;-77
2022/08/12 15:12:25;;;;;;;;;;;;;;;;;;5029822;28;1092;-77
2022/08/12 15:14:52;;;;;;;;;;;;;;;;;;5029055;28;1389;-79
2022/08/12 15:17:18;;;;;;;;;;;;;;;;;;5022550;28;1297;-78
2022/08/12 15:19:44;;;;;;;;;;;;;;;;;;5050783;28;1466;-78
2022/08/12 15:22:11;;;;;;;;;;;;;;;;;;5057342;28;1979;-78
2022/08/12 15:24:37;;;;;;;;;;;;;;;;;;5041225;28;1694;-78
2022/08/12 15:27:05;;;;;;;;;;;;;;;;;;5045037;28;1515;-77
2022/08/12 15:29:31;;;;;;;;;;;;;;;;;;5028988;28;1462;-78
2022/08/12 15:31:57;;;;;;;;;;;;;;;;;;5042470;28;1766;-78
2022/08/12 15:34:24;;;;;;;;;;;;;;;;;;5042396;28;1150;-77
2022/08/12 15:36:50;;;;;;;;;;;;;;;;;;5042166;28;1409;-77
2022/08/12 15:39:17;;;;;;;;;;;;;;;;;;5055011;28;1514;-77
2022/08/12 15:41:43;;;;;;;;;;;;;;;;;;5043072;28;1961;-76
2022/08/12 15:44:10;;;;;;;;;;;;;;;;;;5048973;28;1178;-77
2022/08/12 15:46:36;;;;;;;;;;;;;;;;;;5050671;28;826;-76
2022/08/12 15:49:03;;;;;;;;;;;;;;;;;;5051090;28;1965;-77
2022/08/12 15:51:30;;;;;;;;;;;;;;;;;;5018270;28;1251;-77
2022/08/12 15:54:06;;;;;;;;;;;;;;;;;;5046421;28;1871;-81
2022/08/12 15:56:32;;;;;;;;;;;;;;;;;;5040274;28;1201;-81
2022/08/12 15:58:59;;;;;;;;;;;;;;;;;;5048312;28;1830;-79
2022/08/12 16:01:28;;;;;;;;;;;;;;;;;;5042243;28;1752;-78
2022/08/12 16:03:56;;;;;;;;;;;;;;;;;;5051819;28;1922;-76
2022/08/12 16:06:23;;;;;;;;;;;;;;;;;;5046973;28;1143;-77
2022/08/12 16:08:49;;;;;;;;;;;;;;;;;;5053334;28;1345;-77
2022/08/12 16:11:20;;;;;;;;;;;;;;;;;;5054297;28;1068;-77
2022/08/12 16:13:47;;;;;;;;;;;;;;;;;;5054332;28;1538;-78
2022/08/12 16:16:13;;;;;;;;;;;;;;;;;;5054586;28;1523;-77
2022/08/12 16:18:41;;;;;;;;;;;;;;;;;;5036654;28;1420;-77
2022/08/12 16:21:09;;;;;;;;;;;;;;;;;;5054664;28;1118;-77
2022/08/12 16:23:35;;;;;;;;;;;;;;;;;;5052903;28;1969;-77
2022/08/12 16:26:03;;;;;;;;;;;;;;;;;;5055022;28;648;-77
2022/08/12 16:28:30;;;;;;;;;;;;;;;;;;5054616;28;1420;-77
2022/08/12 16:30:56;;;;;;;;;;;;;;;;;;5036162;28;1238;-76
2022/08/12 16:33:23;;;;;;;;;;;;;;;;;;5054165;28;1052;-76
2022/08/12 16:35:51;;;;;;;;;;;;;;;;;;5053639;28;1350;-77
2022/08/12 16:38:18;;;;;;;;;;;;;;;;;;5054640;28;1319;-77
2022/08/12 16:40:44;;;;;;;;;;;;;;;;;;5054174;28;1024;-77
2022/08/12 16:43:24;;;;;;;;;;;;;;;;;;5054184;28;1969;-77
2022/08/12 16:45:52;;;;;;;;;;;;;;;;;;5054009;28;1161;-77
2022/08/12 16:48:24;;;;;;;;;;;;;;;;;;5053945;28;1356;-77
2022/08/12 16:50:52;;;;;;;;;;;;;;;;;;5053970;28;945;-78
2022/08/12 16:53:18;;;;;;;;;;;;;;;;;;5054040;28;1068;-77
2022/08/12 16:55:47;;;;;;;;;;;;;;;;;;5054110;28;1067;-77
2022/08/12 16:58:13;;;;;;;;;;;;;;;;;;5036104;28;1357;-77
2022/08/12 17:00:40;;;;;;;;;;;;;;;;;;5053847;28;1239;-77
2022/08/12 17:03:06;;;;;;;;;;;;;;;;;;5053539;28;1953;-77
2022/08/12 17:05:32;;;;;;;;;;;;;;;;;;5053558;28;1107;-77
2022/08/12 17:08:01;;;;;;;;;;;;;;;;;;5053566;28;1321;-77
2022/08/12 17:10:27;;;;;;;;;;;;;;;;;;5053724;28;1439;-77
2022/08/12 17:12:53;;;;;;;;;;;;;;;;;;5053348;28;1114;-77
2022/08/12 17:15:19;;;;;;;;;;;;;;;;;;5053290;28;889;-76
2022/08/12 17:17:45;;;;;;;;;;;;;;;;;;5053396;28;1305;-76
2022/08/12 17:20:12;;;;;;;;;;;;;;;;;;5053782;28;794;-76
2022/08/12 17:22:38;;;;;;;;;;;;;;;;;;5035223;28;1973;-77
2022/08/12 17:25:09;;;;;;;;;;;;;;;;;;5053249;28;969;-76
2022/08/12 17:27:41;;;;;;;;;;;;;;;;;;5053473;28;1316;-77
2022/08/12 17:30:08;;;;;;;;;;;;;;;;;;5053328;28;934;-76
2022/08/12 17:32:35;;;;;;;;;;;;;;;;;;5053099;28;956;-76
2022/08/12 17:37:47;;;;;;;;;;;;;;;;;;5051015;28;1388;-76
2022/08/12 17:40:14;;;;;;;;;;;;;;;;;;5048749;28;1366;-77
2022/08/12 17:42:42;;;;;;;;;;;;;;;;;;5049292;28;1922;-76
2022/08/12 17:45:09;;;;;;;;;;;;;;;;;;5058942;28;1375;-76
2022/08/12 17:47:35;;;;;;;;;;;;;;;;;;5049813;28;1788;-76
2022/08/12 17:50:04;;;;;;;;;;;;;;;;;;5033909;28;1338;-76
2022/08/12 17:52:30;;;;;;;;;;;;;;;;;;5052579;28;1387;-75
2022/08/12 17:54:58;;;;;;;;;;;;;;;;;;5032785;28;1416;-76
2022/08/12 17:57:28;;;;;;;;;;;;;;;;;;5048121;28;1463;-75
2022/08/12 17:59:54;;;;;;;;;;;;;;;;;;5052739;28;1158;-76
2022/08/12 18:02:20;;;;;;;;;;;;;;;;;;5033685;28;1163;-76
2022/08/12 18:04:46;;;;;;;;;;;;;;;;;;5049435;28;1906;-76
2022/08/12 18:07:15;;;;;;;;;;;;;;;;;;5051238;28;1298;-75
2022/08/12 18:09:41;;;;;;;;;;;;;;;;;;5050057;28;1436;-76
2022/08/12 18:14:55;;;;;;;;;;;;;;;;;;5051733;28;1344;-76
2022/08/12 18:17:22;;;;;;;;;;;;;;;;;;5051235;28;1931;-77
2022/08/12 18:19:48;;;;;;;;;;;;;;;;;;5047763;28;1328;-76
2022/08/12 18:22:15;;;;;;;;;;;;;;;;;;5044661;28;1193;-76
2022/08/12 18:24:41;;;;;;;;;;;;;;;;;;5049629;28;1967;-76
2022/08/12 18:27:08;;;;;;;;;;;;;;;;;;5047902;28;1353;-75
2022/08/12 18:29:34;;;;;;;;;;;;;;;;;;5049534;28;1456;-75
2022/08/12 18:32:01;;;;;;;;;;;;;;;;;;5048968;28;1255;-76
2022/08/12 18:34:28;;;;;;;;;;;;;;;;;;5049960;28;1251;-75
2022/08/12 18:36:54;;;;;;;;;;;;;;;;;;5049753;28;785;-75
2022/08/12 18:39:20;;;;;;;;;;;;;;;;;;5030734;28;1427;-75
2022/08/12 18:41:45;;;;;;;;;;;;;;;;;;5045622;28;1302;-76
2022/08/12 18:44:12;;;;;;;;;;;;;;;;;;5032006;28;1988;-76
2022/08/12 18:46:45;;;;;;;;;;;;;;;;;;5045015;28;1925;-76
2022/08/12 18:49:16;;;;;;;;;;;;;;;;;;5027952;28;1494;-76
2022/08/12 18:51:44;;;;;;;;;;;;;;;;;;5046623;28;1348;-76
2022/08/12 18:54:10;;;;;;;;;;;;;;;;;;5048357;28;1193;-76
2022/08/12 18:56:37;;;;;;;;;;;;;;;;;;5045045;28;1377;-75
2022/08/12 18:59:04;;;;;;;;;;;;;;;;;;5046271;28;1488;-75
2022/08/12 19:01:30;;;;;;;;;;;;;;;;;;5049364;28;1331;-75